EJA258 KJZI-KPBI
Flight info
| Callsign | EJA258 |
|---|---|
| Flight time | 1h 4m |
| Altitude | 38000 |
| Route | KIAWA2 GIPPL Q93 WOPNR KENLL CPTAN3 |
| Aircraft | CL60/M-SBDE1E2E3FGHIJ1J4J5J7M3RWXYZ/LB1V1D1 |
Departure
| Time | 2026-04-28 20:12 |
|---|---|
| Airport | Charleston Executive Airport (KJZI) |
Arrival
| Time | 2026-04-28 21:16 |
|---|---|
| Airport | Palm Beach International Airport (KPBI) |
| Time | Latitude | Longitude | Altitude | Speed | Heading |
|---|---|---|---|---|---|
| 2026-04-28 19:27 | 32.70181 | -80.00720 | 21 ft | 0 kts | 111° |
| 2026-04-28 20:07 | 32.70179 | -80.00713 | 21 ft | 3 kts | 94° |
| 2026-04-28 20:08 | 32.70198 | -80.00688 | 21 ft | 6 kts | 10° |
| 2026-04-28 20:08 | 32.70253 | -80.00687 | 21 ft | 8 kts | 359° |
| 2026-04-28 20:08 | 32.70327 | -80.00689 | 21 ft | 10 kts | 359° |
| 2026-04-28 20:08 | 32.70379 | -80.00670 | 20 ft | 8 kts | 70° |
| 2026-04-28 20:09 | 32.70383 | -80.00581 | 20 ft | 12 kts | 89° |
| 2026-04-28 20:09 | 32.70385 | -80.00462 | 18 ft | 13 kts | 89° |
| 2026-04-28 20:09 | 32.70386 | -80.00357 | 18 ft | 11 kts | 90° |
| 2026-04-28 20:09 | 32.70387 | -80.00247 | 17 ft | 15 kts | 89° |
| 2026-04-28 20:10 | 32.70388 | -80.00106 | 15 ft | 19 kts | 90° |
| 2026-04-28 20:10 | 32.70390 | -79.99932 | 14 ft | 16 kts | 89° |
| 2026-04-28 20:10 | 32.70391 | -79.99832 | 13 ft | 6 kts | 94° |
| 2026-04-28 20:10 | 32.70348 | -79.99807 | 13 ft | 9 kts | 179° |
| 2026-04-28 20:11 | 32.70307 | -79.99796 | 13 ft | 3 kts | 127° |
| 2026-04-28 20:11 | 32.70286 | -79.99756 | 13 ft | 7 kts | 122° |
| 2026-04-28 20:11 | 32.70260 | -79.99731 | 13 ft | 3 kts | 202° |
| 2026-04-28 20:11 | 32.70181 | -79.99789 | 14 ft | 47 kts | 211° |
| 2026-04-28 20:12 | 32.69583 | -80.00234 | 48 ft | 146 kts | 211° |
| 2026-04-28 20:12 | 32.68679 | -80.00920 | 863 ft | 169 kts | 212° |
| 2026-04-28 20:12 | 32.67787 | -80.02004 | 1613 ft | 207 kts | 241° |
| 2026-04-28 20:12 | 32.67374 | -80.03062 | 1841 ft | 217 kts | 248° |
| 2026-04-28 20:13 | 32.66609 | -80.05373 | 1979 ft | 230 kts | 249° |
| 2026-04-28 20:13 | 32.66021 | -80.07143 | 2012 ft | 229 kts | 248° |
| 2026-04-28 20:13 | 32.65420 | -80.08932 | 2299 ft | 241 kts | 249° |
| 2026-04-28 20:13 | 32.64784 | -80.10807 | 2607 ft | 252 kts | 249° |
| 2026-04-28 20:14 | 32.64103 | -80.12795 | 3150 ft | 272 kts | 249° |
| 2026-04-28 20:14 | 32.63387 | -80.14839 | 4703 ft | 273 kts | 250° |
| 2026-04-28 20:14 | 32.62673 | -80.16832 | 6320 ft | 270 kts | 251° |
| 2026-04-28 20:14 | 32.61952 | -80.18847 | 7760 ft | 272 kts | 252° |
| 2026-04-28 20:15 | 32.61229 | -80.20863 | 9126 ft | 274 kts | 252° |
| 2026-04-28 20:15 | 32.60486 | -80.22932 | 10408 ft | 279 kts | 252° |
| 2026-04-28 20:15 | 32.59699 | -80.25139 | 11016 ft | 309 kts | 251° |
| 2026-04-28 20:15 | 32.58701 | -80.27539 | 11561 ft | 342 kts | 240° |
| 2026-04-28 20:16 | 32.56979 | -80.29555 | 12469 ft | 364 kts | 219° |
| 2026-04-28 20:16 | 32.54812 | -80.31186 | 13427 ft | 374 kts | 216° |
| 2026-04-28 20:16 | 32.52583 | -80.32832 | 14450 ft | 380 kts | 217° |
| 2026-04-28 20:16 | 32.50342 | -80.34493 | 15470 ft | 385 kts | 217° |
| 2026-04-28 20:17 | 32.48047 | -80.36191 | 16521 ft | 389 kts | 217° |
| 2026-04-28 20:17 | 32.45771 | -80.37876 | 17481 ft | 394 kts | 217° |
| 2026-04-28 20:17 | 32.43423 | -80.39614 | 18351 ft | 400 kts | 217° |
| 2026-04-28 20:17 | 32.41084 | -80.41344 | 19272 ft | 403 kts | 217° |
| 2026-04-28 20:18 | 32.38685 | -80.43117 | 20116 ft | 407 kts | 217° |
| 2026-04-28 20:18 | 32.37094 | -80.44292 | 20669 ft | 410 kts | 217° |
| 2026-04-28 20:18 | 32.33859 | -80.46682 | 21732 ft | 414 kts | 217° |
| 2026-04-28 20:18 | 32.31396 | -80.48500 | 22472 ft | 419 kts | 217° |
| 2026-04-28 20:19 | 32.28928 | -80.50320 | 23182 ft | 423 kts | 217° |
| 2026-04-28 20:19 | 32.26405 | -80.52182 | 23849 ft | 428 kts | 216° |
| 2026-04-28 20:19 | 32.23854 | -80.54061 | 24486 ft | 434 kts | 216° |
| 2026-04-28 20:19 | 32.21293 | -80.55947 | 25150 ft | 438 kts | 216° |
| 2026-04-28 20:20 | 32.18688 | -80.57864 | 25822 ft | 441 kts | 216° |
| 2026-04-28 20:20 | 32.16073 | -80.59785 | 26592 ft | 438 kts | 216° |
| 2026-04-28 20:20 | 32.13518 | -80.61661 | 27344 ft | 435 kts | 216° |
| 2026-04-28 20:20 | 32.10961 | -80.63538 | 28074 ft | 432 kts | 216° |
| 2026-04-28 20:21 | 32.08397 | -80.65418 | 28774 ft | 430 kts | 215° |
| 2026-04-28 20:21 | 32.05867 | -80.67274 | 29424 ft | 429 kts | 215° |
| 2026-04-28 20:21 | 32.03361 | -80.69110 | 30070 ft | 427 kts | 215° |
| 2026-04-28 20:21 | 32.00829 | -80.70964 | 30743 ft | 425 kts | 214° |
| 2026-04-28 20:22 | 31.98339 | -80.72787 | 31417 ft | 423 kts | 215° |
| 2026-04-28 20:22 | 31.95853 | -80.74606 | 32088 ft | 420 kts | 214° |
| 2026-04-28 20:22 | 31.93394 | -80.76402 | 32750 ft | 416 kts | 214° |
| 2026-04-28 20:22 | 31.90959 | -80.78181 | 33415 ft | 412 kts | 214° |
| 2026-04-28 20:23 | 31.88499 | -80.79977 | 34078 ft | 409 kts | 214° |
| 2026-04-28 20:23 | 31.86099 | -80.81730 | 34735 ft | 406 kts | 214° |
| 2026-04-28 20:23 | 31.83728 | -80.83459 | 35377 ft | 403 kts | 214° |
| 2026-04-28 20:23 | 31.81344 | -80.85196 | 36046 ft | 398 kts | 214° |
| 2026-04-28 20:24 | 31.79029 | -80.86883 | 36681 ft | 394 kts | 215° |
| 2026-04-28 20:24 | 31.76680 | -80.88593 | 37234 ft | 391 kts | 215° |
| 2026-04-28 20:24 | 31.74400 | -80.90253 | 37649 ft | 392 kts | 215° |
| 2026-04-28 20:24 | 31.72071 | -80.91948 | 37901 ft | 395 kts | 215° |
| 2026-04-28 20:25 | 31.69727 | -80.93652 | 38123 ft | 399 kts | 215° |
| 2026-04-28 20:25 | 31.64889 | -80.97169 | 38121 ft | 415 kts | 215° |
| 2026-04-28 20:26 | 31.59905 | -81.00787 | 38119 ft | 429 kts | 215° |
| 2026-04-28 20:26 | 31.54766 | -81.04511 | 38116 ft | 439 kts | 214° |
| 2026-04-28 20:27 | 31.49530 | -81.08297 | 38121 ft | 442 kts | 214° |
| 2026-04-28 20:27 | 31.44243 | -81.12027 | 38126 ft | 443 kts | 211° |
| 2026-04-28 20:28 | 31.38445 | -81.14649 | 38127 ft | 448 kts | 198° |
| 2026-04-28 20:28 | 31.32248 | -81.15592 | 38127 ft | 455 kts | 184° |
| 2026-04-28 20:29 | 31.25875 | -81.15008 | 38128 ft | 460 kts | 177° |
| 2026-04-28 20:29 | 31.19497 | -81.14233 | 38135 ft | 460 kts | 177° |
| 2026-04-28 20:30 | 31.13141 | -81.13464 | 38131 ft | 461 kts | 177° |
| 2026-04-28 20:30 | 31.06757 | -81.12691 | 38132 ft | 460 kts | 177° |
| 2026-04-28 20:31 | 31.00363 | -81.11920 | 38127 ft | 460 kts | 177° |
| 2026-04-28 20:31 | 30.94018 | -81.11156 | 38136 ft | 460 kts | 177° |
| 2026-04-28 20:32 | 30.87613 | -81.10386 | 38137 ft | 461 kts | 177° |
| 2026-04-28 20:32 | 30.81166 | -81.09612 | 38127 ft | 462 kts | 177° |
| 2026-04-28 20:33 | 30.74756 | -81.08843 | 38130 ft | 463 kts | 177° |
| 2026-04-28 20:33 | 30.68340 | -81.08075 | 38134 ft | 464 kts | 177° |
| 2026-04-28 20:34 | 30.61931 | -81.07426 | 38126 ft | 462 kts | 183° |
| 2026-04-28 20:34 | 30.55494 | -81.07704 | 38137 ft | 461 kts | 186° |
| 2026-04-28 20:35 | 30.49096 | -81.08018 | 38138 ft | 462 kts | 186° |
| 2026-04-28 20:35 | 30.42658 | -81.08330 | 38137 ft | 462 kts | 186° |
| 2026-04-28 20:36 | 30.36194 | -81.08642 | 38136 ft | 464 kts | 186° |
| 2026-04-28 20:36 | 30.29733 | -81.08952 | 38136 ft | 465 kts | 186° |
| 2026-04-28 20:37 | 30.23268 | -81.09260 | 38148 ft | 465 kts | 186° |
| 2026-04-28 20:37 | 30.16807 | -81.09567 | 38140 ft | 466 kts | 186° |
| 2026-04-28 20:38 | 30.10313 | -81.09875 | 38138 ft | 467 kts | 186° |
| 2026-04-28 20:38 | 30.03802 | -81.10183 | 38049 ft | 465 kts | 186° |
| 2026-04-28 20:38 | 30.00599 | -81.10332 | 37674 ft | 461 kts | 185° |
| 2026-04-28 20:39 | 29.97396 | -81.10484 | 37304 ft | 460 kts | 186° |
| 2026-04-28 20:39 | 29.94186 | -81.10635 | 36939 ft | 460 kts | 185° |
| 2026-04-28 20:39 | 29.90993 | -81.10785 | 36564 ft | 460 kts | 185° |
| 2026-04-28 20:39 | 29.87772 | -81.10937 | 36215 ft | 460 kts | 185° |
| 2026-04-28 20:40 | 29.84555 | -81.11089 | 35842 ft | 460 kts | 185° |
| 2026-04-28 20:40 | 29.81322 | -81.11240 | 35469 ft | 461 kts | 185° |
| 2026-04-28 20:40 | 29.78138 | -81.11390 | 35113 ft | 462 kts | 184° |
| 2026-04-28 20:40 | 29.74891 | -81.11543 | 34735 ft | 463 kts | 184° |
| 2026-04-28 20:41 | 29.71692 | -81.11692 | 34353 ft | 464 kts | 184° |
| 2026-04-28 20:41 | 29.68424 | -81.11845 | 33958 ft | 466 kts | 184° |
| 2026-04-28 20:41 | 29.65214 | -81.11996 | 33589 ft | 467 kts | 184° |
| 2026-04-28 20:41 | 29.61954 | -81.12131 | 33229 ft | 467 kts | 182° |
| 2026-04-28 20:42 | 29.58705 | -81.11966 | 32860 ft | 466 kts | 175° |
| 2026-04-28 20:42 | 29.55544 | -81.11351 | 32499 ft | 464 kts | 167° |
| 2026-04-28 20:42 | 29.52438 | -81.10289 | 32126 ft | 462 kts | 161° |
| 2026-04-28 20:42 | 29.49425 | -81.09038 | 31754 ft | 460 kts | 160° |
| 2026-04-28 20:43 | 29.46386 | -81.07775 | 31380 ft | 458 kts | 160° |
| 2026-04-28 20:43 | 29.43394 | -81.06534 | 31009 ft | 460 kts | 160° |
| 2026-04-28 20:43 | 29.40370 | -81.05281 | 30632 ft | 472 kts | 160° |
| 2026-04-28 20:43 | 29.37219 | -81.03976 | 30252 ft | 485 kts | 160° |
| 2026-04-28 20:44 | 29.33989 | -81.02640 | 29872 ft | 491 kts | 160° |
| 2026-04-28 20:44 | 29.30778 | -81.01312 | 29500 ft | 491 kts | 160° |
| 2026-04-28 20:44 | 29.27578 | -80.99991 | 29130 ft | 487 kts | 160° |
| 2026-04-28 20:44 | 29.24358 | -80.98661 | 28763 ft | 483 kts | 160° |
| 2026-04-28 20:45 | 29.21219 | -80.97366 | 28568 ft | 479 kts | 160° |
| 2026-04-28 20:45 | 29.18097 | -80.96079 | 28684 ft | 474 kts | 160° |
| 2026-04-28 20:45 | 29.14964 | -80.94789 | 28669 ft | 480 kts | 160° |
| 2026-04-28 20:46 | 29.08583 | -80.92164 | 28475 ft | 484 kts | 160° |
| 2026-04-28 20:46 | 29.02268 | -80.89569 | 28285 ft | 480 kts | 160° |
| 2026-04-28 20:47 | 28.96013 | -80.87003 | 28141 ft | 477 kts | 160° |
| 2026-04-28 20:47 | 28.89774 | -80.84448 | 28126 ft | 478 kts | 160° |
| 2026-04-28 20:48 | 28.83472 | -80.81873 | 28127 ft | 479 kts | 160° |
| 2026-04-28 20:48 | 28.77168 | -80.79298 | 28132 ft | 480 kts | 160° |
| 2026-04-28 20:49 | 28.70904 | -80.76745 | 28133 ft | 480 kts | 160° |
| 2026-04-28 20:49 | 28.64601 | -80.74178 | 28128 ft | 479 kts | 160° |
| 2026-04-28 20:50 | 28.58326 | -80.71626 | 28131 ft | 480 kts | 160° |
| 2026-04-28 20:50 | 28.52022 | -80.69067 | 28130 ft | 479 kts | 160° |
| 2026-04-28 20:51 | 28.45748 | -80.66522 | 28127 ft | 479 kts | 160° |
| 2026-04-28 20:51 | 28.39392 | -80.63947 | 28127 ft | 480 kts | 160° |
| 2026-04-28 20:52 | 28.33128 | -80.61413 | 28125 ft | 479 kts | 160° |
| 2026-04-28 20:52 | 28.26843 | -80.58873 | 28126 ft | 479 kts | 160° |
| 2026-04-28 20:53 | 28.17381 | -80.55056 | 28124 ft | 479 kts | 160° |
| 2026-04-28 20:53 | 28.11076 | -80.52517 | 27799 ft | 485 kts | 160° |
| 2026-04-28 20:54 | 28.07897 | -80.51238 | 27200 ft | 481 kts | 160° |
| 2026-04-28 20:54 | 28.04772 | -80.49981 | 26604 ft | 473 kts | 160° |
| 2026-04-28 20:54 | 28.01714 | -80.48752 | 25996 ft | 466 kts | 160° |
| 2026-04-28 20:54 | 27.98670 | -80.47529 | 25387 ft | 461 kts | 160° |
| 2026-04-28 20:55 | 27.95678 | -80.46329 | 24775 ft | 457 kts | 160° |
| 2026-04-28 20:55 | 27.92688 | -80.45129 | 24168 ft | 452 kts | 159° |
| 2026-04-28 20:55 | 27.89733 | -80.43943 | 23575 ft | 448 kts | 159° |
| 2026-04-28 20:55 | 27.86778 | -80.42757 | 22985 ft | 444 kts | 159° |
| 2026-04-28 20:56 | 27.83882 | -80.41596 | 22401 ft | 440 kts | 159° |
| 2026-04-28 20:56 | 27.81007 | -80.40444 | 21824 ft | 436 kts | 159° |
| 2026-04-28 20:56 | 27.78131 | -80.39291 | 21237 ft | 432 kts | 159° |
| 2026-04-28 20:56 | 27.75295 | -80.38156 | 20670 ft | 429 kts | 159° |
| 2026-04-28 20:57 | 27.72526 | -80.37048 | 20106 ft | 425 kts | 159° |
| 2026-04-28 20:57 | 27.69743 | -80.35935 | 19542 ft | 421 kts | 159° |
| 2026-04-28 20:57 | 27.66976 | -80.34822 | 18978 ft | 417 kts | 159° |
| 2026-04-28 20:57 | 27.64297 | -80.33532 | 18427 ft | 413 kts | 154° |
| 2026-04-28 20:58 | 27.61711 | -80.32159 | 17886 ft | 409 kts | 154° |
| 2026-04-28 20:58 | 27.59145 | -80.30799 | 17346 ft | 406 kts | 154° |
| 2026-04-28 20:58 | 27.56603 | -80.29454 | 16805 ft | 403 kts | 154° |
| 2026-04-28 20:58 | 27.54090 | -80.28125 | 16275 ft | 399 kts | 153° |
| 2026-04-28 20:59 | 27.51563 | -80.26789 | 15741 ft | 396 kts | 153° |
| 2026-04-28 20:59 | 27.49085 | -80.25481 | 15211 ft | 393 kts | 153° |
| 2026-04-28 20:59 | 27.46615 | -80.24178 | 14696 ft | 389 kts | 153° |
| 2026-04-28 20:59 | 27.44177 | -80.22892 | 14189 ft | 387 kts | 153° |
| 2026-04-28 21:00 | 27.41754 | -80.21616 | 13680 ft | 383 kts | 153° |
| 2026-04-28 21:00 | 27.39362 | -80.20356 | 13166 ft | 380 kts | 153° |
| 2026-04-28 21:00 | 27.36972 | -80.19099 | 12675 ft | 376 kts | 153° |
| 2026-04-28 21:00 | 27.34614 | -80.17857 | 12172 ft | 374 kts | 153° |
| 2026-04-28 21:01 | 27.32265 | -80.16623 | 11678 ft | 370 kts | 153° |
| 2026-04-28 21:01 | 27.29935 | -80.15398 | 11182 ft | 367 kts | 152° |
| 2026-04-28 21:01 | 27.27629 | -80.14188 | 10695 ft | 365 kts | 152° |
| 2026-04-28 21:01 | 27.25332 | -80.13009 | 10222 ft | 356 kts | 153° |
| 2026-04-28 21:02 | 27.23109 | -80.11930 | 10017 ft | 337 kts | 153° |
| 2026-04-28 21:02 | 27.21024 | -80.10922 | 9988 ft | 317 kts | 153° |
| 2026-04-28 21:02 | 27.19032 | -80.09957 | 9811 ft | 305 kts | 153° |
| 2026-04-28 21:02 | 27.17108 | -80.09023 | 9500 ft | 302 kts | 153° |
| 2026-04-28 21:03 | 27.15183 | -80.08089 | 9172 ft | 298 kts | 153° |
| 2026-04-28 21:03 | 27.13278 | -80.07162 | 8854 ft | 297 kts | 153° |
| 2026-04-28 21:03 | 27.11392 | -80.06227 | 8523 ft | 295 kts | 153° |
| 2026-04-28 21:03 | 27.09522 | -80.05299 | 8174 ft | 294 kts | 153° |
| 2026-04-28 21:04 | 27.07666 | -80.04378 | 7809 ft | 289 kts | 153° |
| 2026-04-28 21:04 | 27.05826 | -80.03468 | 7381 ft | 287 kts | 154° |
| 2026-04-28 21:04 | 27.04000 | -80.02563 | 6959 ft | 284 kts | 154° |
| 2026-04-28 21:04 | 27.02214 | -80.01678 | 6544 ft | 282 kts | 154° |
| 2026-04-28 21:05 | 27.00418 | -80.00790 | 6121 ft | 280 kts | 154° |
| 2026-04-28 21:05 | 26.98650 | -79.99915 | 5668 ft | 278 kts | 154° |
| 2026-04-28 21:05 | 26.96813 | -79.99197 | 5223 ft | 278 kts | 168° |
| 2026-04-28 21:05 | 26.94895 | -79.99215 | 4766 ft | 279 kts | 191° |
| 2026-04-28 21:06 | 26.93110 | -80.00066 | 4317 ft | 278 kts | 214° |
| 2026-04-28 21:06 | 26.91588 | -80.01355 | 4018 ft | 273 kts | 218° |
| 2026-04-28 21:06 | 26.90076 | -80.02661 | 3968 ft | 275 kts | 217° |
| 2026-04-28 21:06 | 26.88536 | -80.03986 | 3964 ft | 277 kts | 217° |
| 2026-04-28 21:07 | 26.87007 | -80.05301 | 3969 ft | 276 kts | 217° |
| 2026-04-28 21:07 | 26.85495 | -80.06600 | 3964 ft | 266 kts | 217° |
| 2026-04-28 21:07 | 26.84061 | -80.07838 | 3975 ft | 256 kts | 218° |
| 2026-04-28 21:07 | 26.82671 | -80.09048 | 3983 ft | 246 kts | 218° |
| 2026-04-28 21:08 | 26.81405 | -80.10268 | 3973 ft | 239 kts | 230° |
| 2026-04-28 21:08 | 26.80637 | -80.11892 | 3968 ft | 236 kts | 258° |
| 2026-04-28 21:08 | 26.80433 | -80.13711 | 3961 ft | 235 kts | 268° |
| 2026-04-28 21:08 | 26.80306 | -80.15550 | 3957 ft | 234 kts | 267° |
| 2026-04-28 21:09 | 26.80184 | -80.17323 | 3962 ft | 226 kts | 267° |
| 2026-04-28 21:09 | 26.80067 | -80.19070 | 3972 ft | 224 kts | 268° |
| 2026-04-28 21:09 | 26.79953 | -80.20761 | 3946 ft | 208 kts | 268° |
| 2026-04-28 21:09 | 26.79845 | -80.22347 | 3635 ft | 202 kts | 268° |
| 2026-04-28 21:10 | 26.79559 | -80.23859 | 3317 ft | 199 kts | 242° |
| 2026-04-28 21:10 | 26.78545 | -80.24843 | 3059 ft | 195 kts | 199° |
| 2026-04-28 21:10 | 26.77235 | -80.25284 | 2816 ft | 195 kts | 193° |
| 2026-04-28 21:10 | 26.75949 | -80.25669 | 2581 ft | 186 kts | 192° |
| 2026-04-28 21:11 | 26.74717 | -80.26043 | 2398 ft | 177 kts | 193° |
| 2026-04-28 21:11 | 26.73543 | -80.26402 | 2264 ft | 175 kts | 192° |
| 2026-04-28 21:11 | 26.72345 | -80.26768 | 2118 ft | 177 kts | 192° |
| 2026-04-28 21:11 | 26.71159 | -80.26722 | 1950 ft | 167 kts | 149° |
| 2026-04-28 21:12 | 26.70351 | -80.25860 | 1978 ft | 162 kts | 123° |
| 2026-04-28 21:12 | 26.69659 | -80.24844 | 1976 ft | 163 kts | 123° |
| 2026-04-28 21:12 | 26.69006 | -80.23793 | 1959 ft | 161 kts | 112° |
| 2026-04-28 21:12 | 26.68794 | -80.22601 | 1954 ft | 156 kts | 89° |
| 2026-04-28 21:13 | 26.68772 | -80.21367 | 1823 ft | 160 kts | 89° |
| 2026-04-28 21:13 | 26.68723 | -80.20187 | 1638 ft | 139 kts | 90° |
| 2026-04-28 21:13 | 26.68675 | -80.19175 | 1494 ft | 125 kts | 89° |
| 2026-04-28 21:13 | 26.68640 | -80.18225 | 1329 ft | 120 kts | 89° |
| 2026-04-28 21:14 | 26.68604 | -80.17298 | 1175 ft | 119 kts | 89° |
| 2026-04-28 21:14 | 26.68571 | -80.16376 | 1022 ft | 119 kts | 89° |
| 2026-04-28 21:14 | 26.68520 | -80.15449 | 878 ft | 119 kts | 89° |
| 2026-04-28 21:14 | 26.68478 | -80.14532 | 734 ft | 119 kts | 89° |
| 2026-04-28 21:15 | 26.68443 | -80.13605 | 579 ft | 119 kts | 89° |
| 2026-04-28 21:15 | 26.68405 | -80.12684 | 428 ft | 119 kts | 90° |
| 2026-04-28 21:15 | 26.68364 | -80.11766 | 282 ft | 119 kts | 91° |
| 2026-04-28 21:15 | 26.68320 | -80.10831 | 123 ft | 119 kts | 90° |
| 2026-04-28 21:16 | 26.68280 | -80.09931 | 21 ft | 109 kts | 90° |
| 2026-04-28 21:16 | 26.68251 | -80.09243 | 20 ft | 67 kts | 92° |
| 2026-04-28 21:16 | 26.68236 | -80.08887 | 20 ft | 27 kts | 92° |
| 2026-04-28 21:16 | 26.68226 | -80.08677 | 20 ft | 16 kts | 94° |
| 2026-04-28 21:17 | 26.68188 | -80.08598 | 19 ft | 13 kts | 137° |
| 2026-04-28 21:17 | 26.68141 | -80.08549 | 19 ft | 9 kts | 136° |
| 2026-04-28 21:17 | 26.68114 | -80.08521 | 19 ft | 4 kts | 135° |
| 2026-04-28 21:17 | 26.68104 | -80.08521 | 19 ft | 3 kts | 235° |
| 2026-04-28 21:18 | 26.68110 | -80.08568 | 19 ft | 8 kts | 283° |
| 2026-04-28 21:18 | 26.68117 | -80.08656 | 20 ft | 13 kts | 271° |
| 2026-04-28 21:18 | 26.68121 | -80.08778 | 20 ft | 15 kts | 273° |
| 2026-04-28 21:18 | 26.68128 | -80.08905 | 20 ft | 15 kts | 273° |
| 2026-04-28 21:19 | 26.68094 | -80.08985 | 20 ft | 13 kts | 223° |
| 2026-04-28 21:19 | 26.68028 | -80.09064 | 20 ft | 14 kts | 228° |
| 2026-04-28 21:19 | 26.67953 | -80.09143 | 20 ft | 10 kts | 226° |
| 2026-04-28 21:19 | 26.67932 | -80.09198 | 20 ft | 8 kts | 303° |
| 2026-04-28 21:20 | 26.67984 | -80.09257 | 20 ft | 12 kts | 316° |
| 2026-04-28 21:20 | 26.67973 | -80.09302 | 20 ft | 6 kts | 205° |
| 2026-04-28 21:20 | 26.67919 | -80.09325 | 20 ft | 5 kts | 206° |
| 2026-04-28 21:20 | 26.67891 | -80.09302 | 20 ft | 5 kts | 90° |
| 2026-04-28 21:21 | 26.67891 | -80.09277 | 20 ft | 0 kts | 86° |